Time;durP1;ratioP1;P1;durP2;ratioP2;P2;SDS_P1;SDS_P2;PMS_P1;PMS_P2;Temp;Humidity;BMP_temperature;BMP_pressure;BME280_temperature;BME280_humidity;BME280_pressure;Samples;Min_cycle;Max_cycle;Signal;HPM_P1;HPM_P2
2022/10/09 00:00:39;;;;;;;27.75;14.10;;;;;;;18.43;68.83;101168.06;4978733;28;20046;-81
2022/10/09 00:03:24;;;;;;;20.65;14.07;;;;;;;18.31;69.76;101170.91;4978475;28;20434;-82
2022/10/09 00:06:13;;;;;;;24.85;14.10;;;;;;;18.28;69.95;101168.88;4982546;28;20043;-82
2022/10/09 00:09:00;;;;;;;22.52;14.35;;;;;;;18.34;69.49;101175.69;4978643;28;20042;-82
2022/10/09 00:11:45;;;;;;;29.33;14.27;;;;;;;18.32;70.15;101172.50;4978364;28;20446;-82
2022/10/09 00:14:29;;;;;;;;;;;;;;;18.25;70.33;101172.31;4982762;28;20419;-82
2022/10/09 00:17:15;;;;;;;;;;;;;;;18.20;70.79;101178.09;4978006;28;19922;-82
2022/10/09 00:20:00;;;;;;;25.15;14.77;;;;;;;17.92;71.73;101176.22;4978007;28;19914;-82
2022/10/09 00:22:44;;;;;;;21.67;14.63;;;;;;;17.85;71.89;101176.03;4978219;28;20046;-81
2022/10/09 00:25:29;;;;;;;32.90;15.90;;;;;;;17.88;72.16;101175.31;4978383;28;20035;-82
2022/10/09 00:28:14;;;;;;;26.75;15.40;;;;;;;17.71;72.50;101181.16;4977775;28;20042;-83
2022/10/09 00:31:04;;;;;;;20.83;14.80;;;;;;;17.51;73.81;101179.41;4983221;28;20486;-82
2022/10/09 00:33:49;;;;;;;38.40;14.80;;;;;;;17.45;74.13;101172.53;5023966;23;20508;-83
2022/10/09 00:36:34;;;;;;;23.50;14.25;;;;;;;17.31;74.77;101170.19;5037025;28;20041;-83
2022/10/09 00:39:18;;;;;;;41.88;15.35;;;;;;;16.97;76.62;101166.03;5027928;28;20034;-81
2022/10/09 00:42:03;;;;;;;25.27;15.80;;;;;;;17.17;75.43;101166.25;5032070;28;20046;-80
2022/10/09 00:44:51;;;;;;;;;;;;;;;17.10;76.25;101167.63;5019948;28;20042;-80
2022/10/09 00:47:46;;;;;;;26.05;15.85;;;;;;;17.02;76.62;101160.31;5003258;28;19914;-81
2022/10/09 00:50:42;;;;;;;31.05;15.70;;;;;;;17.15;76.19;101161.09;5000214;28;20042;-81
2022/10/09 00:53:29;;;;;;;22.08;14.95;;;;;;;17.17;75.83;101158.00;4993428;28;20039;-79
2022/10/09 00:56:14;;;;;;;24.88;15.90;;;;;;;17.26;76.08;101159.44;4997425;28;20051;-81
2022/10/09 00:58:59;;;;;;;;;;;;;;;17.26;76.01;101164.94;4999952;28;20042;-81
2022/10/09 01:01:44;;;;;;;26.73;15.88;;;;;;;17.29;75.43;101157.94;5003630;28;20320;-82
2022/10/09 01:04:30;;;;;;;29.88;16.17;;;;;;;17.19;75.95;101163.94;5013667;28;20038;-85
2022/10/09 01:07:14;;;;;;;26.05;15.75;;;;;;;17.36;75.48;101169.94;5015296;28;20409;-84
2022/10/09 01:10:34;;;;;;;29.27;15.60;;;;;;;17.14;75.83;101151.25;5012991;28;20042;-83
2022/10/09 01:13:31;;;;;;;29.90;17.05;;;;;;;17.29;75.33;101161.50;5015752;28;20042;-83
2022/10/09 01:16:27;;;;;;;29.27;16.38;;;;;;;17.34;74.55;101152.19;5013257;28;20042;-83
2022/10/09 01:19:24;;;;;;;26.30;15.27;;;;;;;17.43;74.31;101163.81;5019037;28;20046;-82
2022/10/09 01:22:24;;;;;;;30.65;16.17;;;;;;;17.48;73.97;101155.31;5014179;28;20041;-83
2022/10/09 01:25:18;;;;;;;23.60;14.20;;;;;;;17.47;73.81;101157.28;5022713;28;20037;-85
2022/10/09 01:28:05;;;;;;;30.70;16.05;;;;;;;17.32;74.60;101154.50;5014979;28;20042;-85
2022/10/09 01:30:51;;;;;;;28.55;14.18;;;;;;;17.40;74.08;101159.84;5018058;28;20046;-82
2022/10/09 01:33:36;;;;;;;;;;;;;;;17.53;73.68;101161.38;5015637;28;20045;-81
2022/10/09 01:36:22;;;;;;;24.27;14.48;;;;;;;17.71;73.05;101153.66;5014745;28;20385;-83
2022/10/09 01:39:15;;;;;;;22.30;13.40;;;;;;;17.87;71.82;101161.94;5018860;28;20054;-83
2022/10/09 01:42:00;;;;;;;21.20;13.93;;;;;;;17.87;71.55;101154.47;5016373;28;20046;-81
2022/10/09 01:44:45;;;;;;;19.90;13.57;;;;;;;17.97;71.24;101161.41;5013454;28;20042;-83
2022/10/09 01:47:30;;;;;;;;;;;;;;;18.10;71.31;101159.34;5018900;28;20041;-82
2022/10/09 01:50:24;;;;;;;27.85;14.48;;;;;;;17.84;72.02;101157.91;5018724;28;19913;-85
2022/10/09 01:53:14;;;;;;;23.20;14.48;;;;;;;17.90;72.67;101151.00;5016600;28;20042;-82
2022/10/09 01:56:10;;;;;;;26.60;14.48;;;;;;;17.79;73.49;101155.44;4998361;28;20038;-83
2022/10/09 01:58:58;;;;;;;23.90;14.15;;;;;;;17.80;72.80;101146.03;4998775;28;20046;-82
2022/10/09 02:01:44;;;;;;;22.63;14.73;;;;;;;17.90;72.01;101151.00;4993480;28;20041;-81
2022/10/09 02:04:30;;;;;;;25.90;15.00;;;;;;;17.99;71.07;101147.28;5006634;28;20042;-82
2022/10/09 02:07:17;;;;;;;19.95;13.65;;;;;;;17.90;71.02;101144.69;5012506;28;20046;-82
2022/10/09 02:10:04;;;;;;;22.80;14.25;;;;;;;17.97;71.17;101149.59;5007258;28;20046;-82
2022/10/09 02:12:54;;;;;;;21.85;13.98;;;;;;;17.79;71.91;101149.94;5003602;28;20046;-82
2022/10/09 02:15:54;;;;;;;19.95;13.55;;;;;;;17.63;71.92;101140.84;5018467;28;20509;-84
2022/10/09 02:18:46;;;;;;;24.77;14.50;;;;;;;17.54;72.77;101148.44;5019066;28;20042;-83
2022/10/09 02:21:38;;;;;;;20.50;13.48;;;;;;;17.58;72.86;101143.81;5016852;28;20045;-82
2022/10/09 02:24:23;;;;;;;20.45;14.45;;;;;;;17.40;73.79;101142.53;5013901;28;20033;-83
2022/10/09 02:27:11;;;;;;;22.85;13.18;;;;;;;17.66;72.47;101153.91;5012463;28;20042;-83
2022/10/09 02:30:05;;;;;;;22.88;14.65;;;;;;;17.60;72.55;101141.56;5017853;28;20417;-82
2022/10/09 02:32:53;;;;;;;28.52;14.15;;;;;;;17.62;72.27;101149.47;5013502;28;20409;-83
2022/10/09 02:35:38;;;;;;;23.27;13.15;;;;;;;17.72;71.95;101149.75;5011550;28;20405;-84
2022/10/09 02:38:23;;;;;;;24.67;13.32;;;;;;;17.66;72.17;101140.16;5018008;28;20050;-83
2022/10/09 02:41:07;;;;;;;;;;;;;;;17.81;71.75;101152.34;5018511;28;20041;-81
2022/10/09 02:43:52;;;;;;;19.88;13.55;;;;;;;17.67;71.31;101139.00;5013808;28;20297;-83
2022/10/09 02:46:37;;;;;;;;;;;;;;;17.55;72.16;101147.28;5019079;28;20037;-84
2022/10/09 02:49:21;;;;;;;20.77;11.90;;;;;;;17.52;72.01;101148.00;5012875;28;19914;-84
2022/10/09 02:52:06;;;;;;;28.30;13.55;;;;;;;17.48;72.31;101136.06;5019078;28;20045;-84
2022/10/09 02:54:51;;;;;;;21.60;13.40;;;;;;;17.47;72.24;101131.75;5018534;28;20057;-84
2022/10/09 02:57:36;;;;;;;18.85;12.82;;;;;;;17.68;71.63;101142.53;5018966;28;20046;-84
2022/10/09 03:00:20;;;;;;;22.20;14.15;;;;;;;17.42;72.53;101146.53;5022531;28;20421;-85
2022/10/09 03:03:06;;;;;;;20.58;12.57;;;;;;;17.38;72.89;101142.09;5021795;28;20046;-85
2022/10/09 03:06:05;;;;;;;;;;;;;;;17.34;73.26;101143.94;5023400;28;20042;-84
2022/10/09 03:08:52;;;;;;;25.02;14.30;;;;;;;17.30;73.04;101143.84;5016407;28;19913;-84
2022/10/09 03:11:36;;;;;;;20.42;12.60;;;;;;;17.00;74.54;101140.63;5021828;28;20050;-84
2022/10/09 03:14:21;;;;;;;22.00;14.80;;;;;;;17.14;74.22;101142.19;5016452;28;20042;-83
2022/10/09 03:17:05;;;;;;;23.40;14.10;;;;;;;17.36;73.46;101149.91;5021660;28;20038;-82
2022/10/09 03:19:50;;;;;;;21.30;13.27;;;;;;;17.17;74.11;101155.25;5021737;28;20042;-82
2022/10/09 03:22:35;;;;;;;23.73;14.00;;;;;;;17.33;73.91;101158.84;5015919;28;20046;-84
2022/10/09 03:25:22;;;;;;;26.60;15.50;;;;;;;17.32;73.87;101152.53;5014553;28;20042;-84
2022/10/09 03:28:07;;;;;;;20.23;14.32;;;;;;;17.48;73.70;101160.81;5013545;28;20049;-83
2022/10/09 03:30:52;;;;;;;35.67;13.80;;;;;;;17.50;73.20;101158.53;5016305;28;20042;-83
2022/10/09 03:33:37;;;;;;;;;;;;;;;17.59;72.52;101166.63;5016485;28;20054;-82
2022/10/09 03:36:21;;;;;;;20.80;12.52;;;;;;;17.56;72.38;101161.84;5014830;28;19918;-81
2022/10/09 03:39:06;;;;;;;;;;;;;;;17.59;72.99;101170.22;5002009;28;20046;-84
2022/10/09 03:41:51;;;;;;;18.40;12.20;;;;;;;17.29;74.55;101166.19;5001656;28;20301;-81
2022/10/09 03:44:35;;;;;;;20.85;12.88;;;;;;;17.47;74.42;101165.53;5001205;28;20281;-84
2022/10/09 03:47:20;;;;;;;31.23;12.88;;;;;;;17.70;73.54;101167.75;5015398;28;20030;-85
2022/10/09 03:50:05;;;;;;;17.25;9.80;;;;;;;17.68;72.70;101159.84;5022531;28;20041;-86
2022/10/09 03:52:50;;;;;;;18.85;12.65;;;;;;;17.78;72.36;101159.31;5020431;28;20037;-85
2022/10/09 03:55:35;;;;;;;;;;;;;;;17.88;72.13;101163.50;5025660;28;20050;-84
2022/10/09 03:58:20;;;;;;;18.67;11.88;;;;;;;17.74;72.11;101163.94;5024728;28;19913;-85
2022/10/09 04:01:05;;;;;;;21.52;13.15;;;;;;;17.87;71.94;101167.44;5023475;28;20042;-85
2022/10/09 04:03:50;;;;;;;18.40;11.50;;;;;;;17.83;71.84;101166.50;5019829;28;20493;-84
2022/10/09 04:06:34;;;;;;;17.40;11.40;;;;;;;17.59;72.50;101167.47;5015333;28;20401;-82
2022/10/09 04:09:19;;;;;;;24.88;13.27;;;;;;;17.56;72.94;101168.13;5020498;28;20042;-85
2022/10/09 04:12:03;;;;;;;;;;;;;;;17.58;72.98;101174.06;5021077;28;20409;-83
2022/10/09 04:14:49;;;;;;;28.08;11.68;;;;;;;17.70;72.36;101157.56;5014919;28;19913;-82
2022/10/09 04:17:34;;;;;;;22.77;14.20;;;;;;;17.52;72.89;101165.28;5020122;28;20034;-84
2022/10/09 04:20:19;;;;;;;28.48;13.70;;;;;;;17.52;73.17;101167.25;5017914;28;20490;-81
2022/10/09 04:23:04;;;;;;;21.08;12.90;;;;;;;17.63;72.29;101171.09;5016002;28;20653;-84
2022/10/09 04:25:52;;;;;;;21.95;13.52;;;;;;;17.72;72.91;101171.75;5007538;28;20065;-81
2022/10/09 04:28:38;;;;;;;21.10;12.95;;;;;;;17.72;72.76;101170.97;5008313;28;20046;-81
2022/10/09 04:31:22;;;;;;;21.25;12.65;;;;;;;17.72;72.64;101177.25;4995211;28;20050;-83
2022/10/09 04:34:07;;;;;;;14.18;9.93;;;;;;;17.78;71.98;101178.59;4994846;28;20413;-85
2022/10/09 04:36:51;;;;;;;16.13;9.68;;;;;;;17.67;72.29;101174.78;5000844;28;20049;-83
2022/10/09 04:39:36;;;;;;;15.82;11.93;;;;;;;17.26;74.15;101169.63;4994302;28;20050;-85
2022/10/09 04:42:20;;;;;;;20.95;13.15;;;;;;;17.30;74.72;101176.84;4994691;28;20046;-83
2022/10/09 04:45:05;;;;;;;19.00;12.73;;;;;;;17.23;74.91;101179.38;5000150;28;20445;-82
2022/10/09 04:47:50;;;;;;;21.33;13.18;;;;;;;17.20;75.41;101173.78;5014602;28;20042;-81
2022/10/09 04:50:37;;;;;;;25.23;13.73;;;;;;;17.45;74.48;101180.78;5002318;28;20046;-83
2022/10/09 04:53:22;;;;;;;24.38;13.15;;;;;;;17.50;74.04;101186.84;5009836;28;20038;-82
2022/10/09 04:56:10;;;;;;;20.15;13.65;;;;;;;17.72;73.04;101187.47;5000313;28;20512;-82
2022/10/09 04:58:55;;;;;;;20.88;14.27;;;;;;;17.62;73.06;101183.28;5013116;28;20050;-82
2022/10/09 05:01:40;;;;;;;21.63;13.82;;;;;;;17.67;72.93;101188.53;5012781;28;20046;-82
2022/10/09 05:04:24;;;;;;;;;;;;;;;17.68;73.36;101192.84;5017519;28;20042;-83
2022/10/09 05:07:10;;;;;;;19.02;13.48;;;;;;;17.60;73.19;101185.56;5015110;28;19913;-85
2022/10/09 05:09:55;;;;;;;20.60;13.32;;;;;;;17.61;73.28;101192.66;5016303;28;20042;-86
2022/10/09 05:12:39;;;;;;;18.45;12.13;;;;;;;17.59;73.50;101186.72;5005637;28;20038;-85
2022/10/09 05:15:25;;;;;;;20.88;14.52;;;;;;;17.60;73.95;101191.06;5004548;28;20497;-86
2022/10/09 05:18:09;;;;;;;22.55;12.73;;;;;;;17.62;73.16;101191.53;5007240;28;20413;-85
2022/10/09 05:21:05;;;;;;;14.65;10.82;;;;;;;17.72;73.11;101185.50;5012399;28;20065;-85
2022/10/09 05:23:52;;;;;;;21.25;12.77;;;;;;;17.58;73.87;101196.06;5016883;28;20489;-84
2022/10/09 05:26:37;;;;;;;19.10;12.40;;;;;;;17.55;73.50;101194.03;5021712;28;20033;-85
2022/10/09 05:29:22;;;;;;;22.63;13.65;;;;;;;17.61;73.03;101187.16;5018473;28;20417;-84
2022/10/09 05:32:07;;;;;;;;;;;;;;;17.70;72.43;101189.75;5012359;28;20050;-85
2022/10/09 05:34:52;;;;;;;22.92;14.50;;;;;;;17.68;72.64;101186.53;5012323;28;19914;-86
2022/10/09 05:37:37;;;;;;;22.52;13.93;;;;;;;17.76;72.63;101189.16;5013887;28;20046;-87
2022/10/09 05:40:22;;;;;;;28.30;14.18;;;;;;;17.79;73.18;101182.13;5018260;28;20042;-84
2022/10/09 05:43:07;;;;;;;;;;;;;;;17.80;72.30;101186.50;5004856;28;20229;-85
2022/10/09 05:45:52;;;;;;;24.70;13.38;;;;;;;17.78;72.57;101192.34;5011712;28;19913;-86
2022/10/09 05:48:39;;;;;;;20.50;13.48;;;;;;;17.86;72.36;101198.84;5023734;28;20042;-84
2022/10/09 05:51:27;;;;;;;20.45;13.45;;;;;;;17.98;71.83;101203.50;5018228;28;20041;-85
2022/10/09 05:54:14;;;;;;;20.75;13.55;;;;;;;17.97;71.87;101215.66;5018206;28;20409;-87
2022/10/09 05:56:59;;;;;;;20.63;13.38;;;;;;;18.05;71.92;101215.47;5020025;28;20049;-85
2022/10/09 05:59:44;;;;;;;18.67;13.98;;;;;;;18.14;71.81;101226.31;5017285;28;20509;-85
2022/10/09 06:02:29;;;;;;;27.10;15.05;;;;;;;18.13;71.73;101224.72;5024825;28;20049;-86
2022/10/09 06:05:13;;;;;;;27.75;17.85;;;;;;;18.09;72.45;101219.09;5028200;28;20042;-88
2022/10/09 06:07:58;;;;;;;40.13;22.35;;;;;;;18.05;74.06;101244.94;5021928;28;20042;-87
2022/10/09 06:10:43;;;;;;;;;;;;;;;18.13;74.60;101235.75;5021666;28;20085;-85
2022/10/09 06:13:28;;;;;;;37.50;21.48;;;;;;;18.04;75.25;101238.63;5019886;28;19925;-84
2022/10/09 06:16:15;;;;;;;28.70;18.65;;;;;;;18.05;75.95;101239.44;5023114;28;20405;-85
2022/10/09 06:19:01;;;;;;;24.13;16.67;;;;;;;18.17;75.74;101242.13;5025748;28;20038;-87
2022/10/09 06:21:46;;;;;;;27.17;16.23;;;;;;;18.57;74.05;101237.28;5023108;28;20505;-87
2022/10/09 06:24:31;;;;;;;26.95;17.13;;;;;;;18.35;75.04;101233.16;5017017;28;20050;-85
2022/10/09 06:27:16;;;;;;;27.73;18.23;;;;;;;18.23;75.40;101248.97;5024581;28;20046;-85
2022/10/09 06:30:01;;;;;;;27.77;17.63;;;;;;;18.24;76.02;101256.06;5003120;28;20053;-86
2022/10/09 06:32:46;;;;;;;23.77;16.17;;;;;;;18.16;76.33;101252.34;5019992;28;20041;-88
2022/10/09 06:35:33;;;;;;;25.35;15.77;;;;;;;18.18;76.32;101254.75;4993729;23;20059;-78
2022/10/09 06:38:18;;;;;;;24.50;16.98;;;;;;;18.31;76.26;101259.00;4968718;28;20050;-79
2022/10/09 06:41:05;;;;;;;27.90;17.02;;;;;;;18.33;75.82;101259.47;4988765;28;20506;-79
2022/10/09 06:43:55;;;;;;;30.52;17.30;;;;;;;18.00;77.48;101261.72;4974359;28;20043;-78
2022/10/09 06:46:41;;;;;;;31.95;18.25;;;;;;;18.13;77.21;101266.03;4990725;28;20042;-77
2022/10/09 06:49:25;;;;;;;31.23;15.73;;;;;;;18.22;76.70;101272.16;4972200;28;20410;-77
2022/10/09 06:52:10;;;;;;;;;;;;;;;18.28;77.09;101277.06;4987023;28;20050;-76
2022/10/09 06:54:54;;;;;;;28.30;16.52;;;;;;;18.86;74.12;101282.03;4972747;28;19913;-75
2022/10/09 06:57:40;;;;;;;33.63;18.15;;;;;;;19.10;72.92;101290.09;4972414;28;20030;-75
2022/10/09 07:00:24;;;;;;;;;;;;;;;19.08;73.10;101298.75;4967596;28;20458;-76
2022/10/09 07:03:09;;;;;;;26.73;16.30;;;;;;;19.40;71.81;101310.47;4976844;28;19914;-76
2022/10/09 07:05:53;;;;;;;24.80;16.75;;;;;;;19.14;72.32;101302.03;4972692;28;20043;-76
2022/10/09 07:08:41;;;;;;;22.08;15.32;;;;;;;19.09;72.96;101300.34;4972606;28;20043;-75
2022/10/09 07:11:29;;;;;;;23.17;16.35;;;;;;;19.39;72.00;101314.44;4985543;28;20047;-76
2022/10/09 07:14:15;;;;;;;23.00;14.82;;;;;;;19.53;70.57;101312.00;4977047;28;20051;-76
2022/10/09 07:17:01;;;;;;;25.42;15.05;;;;;;;19.58;70.81;101313.69;4967982;28;20035;-76
2022/10/09 07:19:47;;;;;;;27.48;14.95;;;;;;;19.83;70.08;101322.47;4968198;28;20059;-76
2022/10/09 07:22:32;;;;;;;23.95;13.98;;;;;;;19.96;69.29;101310.16;4965202;28;20410;-76
2022/10/09 07:25:17;;;;;;;26.58;12.80;;;;;;;19.77;69.53;101313.69;4972668;28;20047;-76
2022/10/09 07:28:01;;;;;;;22.63;13.75;;;;;;;20.28;67.70;101305.22;4972271;28;20035;-76
2022/10/09 07:30:46;;;;;;;25.67;13.95;;;;;;;20.80;66.05;101316.44;4972043;28;20422;-76
2022/10/09 07:33:31;;;;;;;24.48;13.32;;;;;;;20.36;67.07;101316.09;4979906;28;20039;-77
2022/10/09 07:36:17;;;;;;;20.42;12.75;;;;;;;21.12;64.64;101313.41;4983803;28;20046;-78
2022/10/09 07:39:03;;;;;;;31.15;13.23;;;;;;;21.26;63.16;101328.28;4977437;28;20115;-78
2022/10/09 07:41:50;;;;;;;20.02;10.85;;;;;;;20.95;64.03;101324.97;4980244;28;20042;-78
2022/10/09 07:44:35;;;;;;;24.42;10.98;;;;;;;20.57;65.07;101325.91;4957022;28;20039;-79
2022/10/09 07:47:19;;;;;;;18.38;10.02;;;;;;;20.81;64.47;101322.78;4961975;28;20043;-78
2022/10/09 07:50:04;;;;;;;20.20;9.55;;;;;;;20.86;63.83;101325.22;4980518;28;20547;-79
2022/10/09 07:52:49;;;;;;;21.50;10.02;;;;;;;20.95;63.65;101334.06;4978607;28;20407;-78
2022/10/09 07:55:33;;;;;;;15.10;9.05;;;;;;;20.86;62.76;101336.28;4978749;28;20043;-79
2022/10/09 07:58:18;;;;;;;15.35;8.40;;;;;;;21.02;61.87;101339.72;4979410;28;20062;-77
2022/10/09 08:01:05;;;;;;;19.17;7.45;;;;;;;20.91;61.70;101349.81;4977200;28;20525;-77
2022/10/09 08:03:50;;;;;;;16.30;8.50;;;;;;;21.06;62.29;101345.31;4977780;28;20047;-78
2022/10/09 08:06:35;;;;;;;11.77;8.25;;;;;;;21.67;60.22;101336.75;4977551;28;20414;-78
2022/10/09 08:09:20;;;;;;;18.30;9.32;;;;;;;21.44;60.44;101336.00;4977415;28;20046;-79
2022/10/09 08:12:05;;;;;;;9.07;6.38;;;;;;;21.28;59.25;101336.97;4978426;28;20050;-76
2022/10/09 08:14:50;;;;;;;16.10;7.10;;;;;;;21.83;58.41;101348.44;4978571;28;20050;-77
2022/10/09 08:17:34;;;;;;;17.98;6.80;;;;;;;21.70;58.49;101345.09;4988831;28;20034;-78
2022/10/09 08:20:19;;;;;;;35.63;8.18;;;;;;;21.88;58.07;101337.03;4983521;28;20050;-78
2022/10/09 08:23:04;;;;;;;13.90;6.65;;;;;;;21.88;57.96;101339.00;4979917;28;20047;-78
2022/10/09 08:25:49;;;;;;;7.15;4.85;;;;;;;21.74;56.74;101336.81;4986231;28;20042;-79
2022/10/09 08:28:33;;;;;;;13.00;6.03;;;;;;;22.02;56.81;101342.75;4986106;28;20066;-78
2022/10/09 08:31:18;;;;;;;10.20;6.15;;;;;;;22.55;55.97;101339.78;4978311;28;20034;-78
2022/10/09 08:34:03;;;;;;;9.88;4.95;;;;;;;23.13;53.19;101344.66;4974192;28;20534;-78
2022/10/09 08:36:48;;;;;;;8.43;3.30;;;;;;;22.81;51.30;101339.63;4967414;28;20042;-79
2022/10/09 08:39:33;;;;;;;7.85;4.53;;;;;;;22.73;51.79;101332.44;4971042;28;20055;-77
2022/10/09 08:42:31;;;;;;;9.07;2.90;;;;;;;22.93;49.20;101339.34;4957281;28;20046;-78
2022/10/09 08:45:18;;;;;;;12.18;2.75;;;;;;;22.75;48.15;101332.06;4961686;28;20054;-79
2022/10/09 08:48:17;;;;;;;7.05;2.22;;;;;;;23.15;46.67;101336.75;4971104;28;20042;-78
2022/10/09 08:51:04;;;;;;;7.40;2.50;;;;;;;22.75;47.65;101338.41;4982071;28;20101;-79
2022/10/09 08:53:57;;;;;;;4.35;2.00;;;;;;;22.55;48.63;101339.78;4984641;28;20533;-78
2022/10/09 08:56:42;;;;;;;7.28;1.90;;;;;;;22.28;48.75;101332.75;4964626;28;20054;-78
2022/10/09 08:59:27;;;;;;;9.05;3.72;;;;;;;22.85;47.25;101346.03;4963934;28;20074;-78
2022/10/09 09:02:17;;;;;;;4.35;2.17;;;;;;;23.13;46.32;101344.66;4977036;28;20054;-77
2022/10/09 09:05:18;;;;;;;7.90;2.15;;;;;;;22.95;47.13;101339.78;4965801;28;20046;-78
2022/10/09 09:08:36;;;;;;;4.47;2.05;;;;;;;22.45;46.69;101343.25;4964879;28;20411;-78
2022/10/09 09:11:39;;;;;;;6.25;2.10;;;;;;;22.35;47.50;101338.38;4960788;28;20041;-78
2022/10/09 09:14:44;;;;;;;4.28;2.67;;;;;;;22.64;47.65;101345.81;4983509;28;20045;-77
2022/10/09 09:17:42;;;;;;;4.72;2.40;;;;;;;22.44;46.86;101347.19;4975866;28;20442;-79
2022/10/09 09:20:45;;;;;;;5.63;1.90;;;;;;;22.55;46.92;101342.56;4973960;28;20066;-77
2022/10/09 09:23:37;;;;;;;15.50;2.85;;;;;;;22.95;45.64;101333.44;4971516;28;20050;-77
2022/10/09 09:26:22;;;;;;;15.25;2.20;;;;;;;23.06;45.22;101336.28;4966140;28;20030;-79
2022/10/09 09:29:12;;;;;;;8.18;2.20;;;;;;;23.32;45.07;101336.06;4971484;28;20042;-78
2022/10/09 09:32:00;;;;;;;7.50;2.28;;;;;;;23.90;43.32;101341.56;4972132;28;20422;-78
2022/10/09 09:34:46;;;;;;;24.27;3.78;;;;;;;24.23;42.47;101340.50;4976452;28;20045;-79
2022/10/09 09:37:30;;;;;;;9.30;2.10;;;;;;;24.03;43.35;101339.22;4971353;28;20047;-78
2022/10/09 09:40:18;;;;;;;7.70;2.55;;;;;;;24.45;41.20;101346.91;4966247;28;20422;-78
2022/10/09 09:43:13;;;;;;;6.07;1.73;;;;;;;24.15;42.28;101328.56;4980907;28;20049;-78
2022/10/09 09:45:59;;;;;;;;;;;;;;;24.36;41.84;101341.75;4967997;28;20046;-78
2022/10/09 09:48:47;;;;;;;7.05;1.80;;;;;;;24.76;40.99;101334.25;4964668;28;19915;-78
2022/10/09 09:51:32;;;;;;;11.00;3.00;;;;;;;24.61;42.21;101337.03;4965124;28;20057;-79
2022/10/09 09:54:22;;;;;;;9.15;2.30;;;;;;;24.76;41.47;101334.25;4973166;28;20039;-79
2022/10/09 09:57:11;;;;;;;2.75;2.42;;;;;;;24.30;43.06;101346.09;4975231;28;20541;-78
2022/10/09 10:00:17;;;;;;;5.47;2.17;;;;;;;23.95;44.31;101343.16;4967164;28;20054;-78
2022/10/09 10:03:13;;;;;;;10.35;2.80;;;;;;;23.39;45.34;101328.59;4974711;28;20049;-80
2022/10/09 10:05:59;;;;;;;9.15;2.95;;;;;;;23.15;46.81;101336.75;4975222;28;20058;-80
2022/10/09 10:08:45;;;;;;;6.15;2.42;;;;;;;23.71;44.82;101331.56;4955926;29;20047;-79
2022/10/09 10:11:31;;;;;;;10.85;3.10;;;;;;;23.65;44.52;101335.09;4974242;28;20058;-79
2022/10/09 10:14:16;;;;;;;7.32;2.20;;;;;;;24.06;44.46;101342.03;4974805;28;20511;-78
2022/10/09 10:17:01;;;;;;;10.73;4.43;;;;;;;24.23;43.31;101332.97;4976424;28;20578;-78
2022/10/09 10:19:49;;;;;;;10.15;1.98;;;;;;;24.69;43.31;101338.59;4975786;28;20414;-78
2022/10/09 10:22:34;;;;;;;5.50;2.30;;;;;;;24.92;42.68;101340.25;4974776;28;20054;-78
2022/10/09 10:25:24;;;;;;;4.25;1.67;;;;;;;24.15;44.34;101339.66;4968550;28;20524;-79
2022/10/09 10:28:16;;;;;;;17.80;2.40;;;;;;;24.49;44.37;101326.25;4983197;28;20042;-78
2022/10/09 10:31:12;;;;;;;3.08;1.52;;;;;;;24.15;44.34;101336.09;4984863;28;20047;-78
2022/10/09 10:34:01;;;;;;;2.50;1.85;;;;;;;23.92;44.74;101341.97;4993271;28;20564;-79
2022/10/09 10:36:48;;;;;;;11.07;3.03;;;;;;;24.46;43.43;101338.19;4977644;28;20418;-79
2022/10/09 10:39:57;;;;;;;5.57;1.45;;;;;;;24.03;43.14;101330.88;4970614;28;20051;-80
2022/10/09 10:42:47;;;;;;;3.15;1.67;;;;;;;24.44;43.01;101337.78;4970618;28;20050;-78
2022/10/09 10:45:41;;;;;;;7.43;2.30;;;;;;;24.97;42.69;101329.50;4969334;28;20046;-79
2022/10/09 10:48:41;;;;;;;7.70;2.40;;;;;;;24.77;43.06;101333.84;4975236;28;20034;-78
2022/10/09 10:51:28;;;;;;;4.70;1.48;;;;;;;24.69;41.92;101326.69;4995628;28;20053;-79
2022/10/09 10:54:32;;;;;;;6.25;1.88;;;;;;;24.45;43.68;101333.00;4972795;28;20058;-79
2022/10/09 10:57:34;;;;;;;16.30;2.60;;;;;;;24.68;43.87;101325.13;4976930;28;20041;-79
2022/10/09 11:00:19;;;;;;;3.80;1.60;;;;;;;25.05;42.97;101331.09;4977467;28;20042;-79
2022/10/09 11:03:06;;;;;;;1.98;1.50;;;;;;;24.52;43.36;101335.81;4980520;28;20057;-80
2022/10/09 11:06:11;;;;;;;7.85;1.77;;;;;;;24.36;43.96;101327.84;4985509;28;20050;-82
2022/10/09 11:09:14;;;;;;;6.10;2.10;;;;;;;23.96;44.98;101333.66;4974387;28;20054;-81
2022/10/09 11:12:26;;;;;;;5.35;2.05;;;;;;;24.14;44.17;101332.50;4980983;28;20046;-78
2022/10/09 11:15:29;;;;;;;7.80;2.05;;;;;;;24.45;43.66;101319.91;4978489;28;20050;-79
2022/10/09 11:18:35;;;;;;;4.55;1.70;;;;;;;23.87;45.24;101317.34;4980208;28;20042;-79
2022/10/09 11:21:40;;;;;;;5.88;1.73;;;;;;;23.33;45.52;101315.44;4978957;28;20053;-80
2022/10/09 11:24:26;;;;;;;4.65;1.33;;;;;;;23.06;46.81;101320.41;4987799;28;20037;-79
2022/10/09 11:27:27;;;;;;;5.97;1.80;;;;;;;23.11;46.50;101314.50;4971521;28;20517;-79
2022/10/09 11:30:14;;;;;;;9.18;1.90;;;;;;;23.23;47.13;101313.41;4978665;28;20517;-79
2022/10/09 11:33:26;;;;;;;5.32;1.80;;;;;;;24.03;44.43;101315.00;4987651;28;20054;-79
2022/10/09 11:36:19;;;;;;;5.25;1.80;;;;;;;24.50;43.56;101313.97;4980449;28;20050;-79
2022/10/09 11:39:09;;;;;;;4.95;2.42;;;;;;;24.17;44.40;101306.75;4970268;28;20038;-79
2022/10/09 11:41:54;;;;;;;7.38;1.80;;;;;;;23.36;46.67;101303.59;4968641;28;20054;-79
2022/10/09 11:44:57;;;;;;;4.63;1.77;;;;;;;23.72;45.52;101305.38;4976294;28;20046;-79
2022/10/09 11:47:54;;;;;;;4.60;1.90;;;;;;;29.13;33.71;101307.81;4973262;28;20050;-80
2022/10/09 11:50:54;;;;;;;3.50;1.48;;;;;;;27.46;35.99;101306.63;4986008;28;20057;-79
2022/10/09 11:53:40;;;;;;;4.45;1.88;;;;;;;25.86;39.30;101301.44;4972948;28;20058;-80
2022/10/09 11:56:30;;;;;;;4.07;1.80;;;;;;;26.65;38.50;101297.78;4972512;28;20054;-78
2022/10/09 11:59:22;;;;;;;3.45;1.67;;;;;;;28.32;34.26;101302.34;4978954;28;20054;-80
2022/10/09 12:02:29;;;;;;;3.53;1.70;;;;;;;28.11;34.56;101290.63;4977076;28;20161;-81
2022/10/09 12:05:46;;;;;;;5.60;2.00;;;;;;;26.80;36.93;101278.94;4977611;28;20053;-79
2022/10/09 12:08:32;;;;;;;4.45;1.80;;;;;;;30.31;30.98;101281.75;4969055;28;20046;-78
2022/10/09 12:11:18;;;;;;;4.63;1.60;;;;;;;33.34;26.51;101276.75;4983960;28;20050;-78
2022/10/09 12:14:05;;;;;;;5.63;1.20;;;;;;;32.15;26.82;101274.72;4972553;28;20054;-79
2022/10/09 12:16:49;;;;;;;6.75;1.35;;;;;;;30.17;29.99;101266.06;4969458;28;20049;-78
2022/10/09 12:19:39;;;;;;;5.07;2.17;;;;;;;31.14;29.13;101265.25;4967360;28;20057;-80
2022/10/09 12:22:29;;;;;;;9.40;1.70;;;;;;;33.22;26.54;101274.75;4976172;28;20054;-77
2022/10/09 12:25:29;;;;;;;4.68;2.03;;;;;;;33.65;25.53;101256.25;4971203;28;20069;-77
2022/10/09 12:28:28;;;;;;;4.13;1.50;;;;;;;32.15;27.97;101246.56;4997169;28;20054;-77
2022/10/09 12:31:22;;;;;;;8.75;1.95;;;;;;;34.60;23.98;101252.41;4967821;28;20054;-78
2022/10/09 12:34:23;;;;;;;;;;;;;;;36.05;22.42;101255.63;5012115;23;20025;-81
2022/10/09 12:37:20;;;;;;;10.65;2.30;;;;;;;35.15;23.22;101255.34;5012374;28;19921;-82
2022/10/09 12:40:12;;;;;;;4.50;1.75;;;;;;;31.31;27.85;101244.28;5015678;28;20081;-80
2022/10/09 12:42:59;;;;;;;9.88;2.08;;;;;;;32.65;26.19;101236.53;5033129;28;20056;-80
2022/10/09 12:45:46;;;;;;;3.83;1.90;;;;;;;35.51;22.85;101246.00;5023756;28;20048;-82
2022/10/09 12:48:38;;;;;;;4.78;2.45;;;;;;;31.92;27.39;101241.25;5027324;28;20045;-80
2022/10/09 12:51:25;;;;;;;4.38;1.90;;;;;;;31.93;26.81;101223.16;5017275;28;20057;-80
2022/10/09 12:54:13;;;;;;;5.43;2.53;;;;;;;33.21;25.41;101230.13;5021773;28;20060;-79
2022/10/09 12:56:59;;;;;;;8.82;2.97;;;;;;;34.69;22.72;101229.84;5020791;28;20045;-80
2022/10/09 12:59:45;;;;;;;4.45;2.33;;;;;;;33.21;24.64;101227.31;5024216;28;20445;-80